Historyczne dane pomiarowe

Dodano dane terminowe – wersja testowa.

Dane z okresu 1951-2019

Wersja bazy: 1.34 [2019-03-16, lista zmian], aktualizacja planowana na 2019-04-15

Dane meteo z obszaru Polski uzyskane na podstawie danych udostępnionych przez Instytut Meteorologii i Gospodarki Wodnej – Państwowy Instytut Badawczy.

 

Wybierz Datę:    

       

TemperaturaWilgotnośćWiatrCiśnienieOpadyŚniegCzas trwania zjawisk
 Stacja t tx tn tng RH VA  wxwx mslp ppp RRR   cm mm wxwxwxwxwxwxwx
2010-02-25 3.6 10.8 0.5 -4.1-- 3.7----- 0.0-- 3---------
2010-02-26 2.7 7.9 -2.0 -6.9-- 7.7----- 0.2-- 1---------
2010-02-27 4.0 8.5 1.4 -5.1-- 3.3----- 0.0------------
2010-02-28 5.4 11.2 -2.5 -7.4-- 7.7----- 0.1------------
2010-03-01 6.0 13.0 2.5 -0.7-- 7.3----- 0.2------------
2010-03-02 2.1 6.2 0.1 -3.6-- 7.0----- 0.1------------
2010-03-03 1.3 5.4 -0.6 -5.8-- 6.0----- 0.6------------
2010-03-04 -2.9 2.9 -7.1-13.8-- 3.7----- 1.5------------
2010-03-05 -4.9 -0.2 -7.3-15.7-- 7.3----- 0.8-- 1---------
2010-03-06 -6.8 -1.0-12.7-19.8-- 5.3----- 0.0-- 2---------
2010-03-07 -6.5 1.8-13.0-18.4-- 2.7----- 0.3-- 1---------
2010-03-08 -3.1 1.9 -5.8-12.0-- 5.0----- 0.1-- 1---------
2010-03-09 -6.6 0.4-11.8-16.4-- 0.0----- 0.0--x---------
2010-03-10 -4.1 2.4 -9.8-15.2-- 1.7----- 0.0------------
2010-03-11 -2.9 4.5 -7.4-12.8-- 1.7----- 0.0------------
2010-03-12 -1.1 1.4 -4.0 -8.9-- 8.0----- 4.8------------
2010-03-13 1.6 2.6 0.5 -2.2-- 8.0----- 7.2------------
2010-03-14 3.1 4.2 1.6 -1.4-- 8.0----- 10.8------------
2010-03-15 0.1 4.1 -2.4 -6.8-- 7.0----- 3.6-- 10---------
2010-03-16 0.2 2.3 -1.0 -5.1-- 7.0----- 0.6-- 6---------
2010-03-17 3.2 6.6 -0.3 -3.9-- 7.3----- 0.0-- 3---------
2010-03-18 7.2 13.5 3.9 -2.7-- 5.3----- 0.0------------
2010-03-19 8.3 15.8 -0.1 -6.5-- 6.3----- 0.0------------
2010-03-20 10.1 15.7 3.0 -3.7-- 6.7----- 0.0------------
2010-03-21 12.7 16.2 11.0 6.7-- 4.7----- 2.6------------
2010-03-22 6.8 13.0 3.0 -3.1-- 2.7----- 0.0------------
2010-03-23 7.2 15.8 -1.0 -7.0-- 4.0----- 0.0------------
2010-03-24 6.4 15.5 -1.4 -7.5-- 4.7----- 0.0------------
2010-03-25 9.4 20.5 1.9 -5.3-- 3.3----- 0.0------------
2010-03-26 11.3 23.0 2.9 -4.1-- 2.3----- 7.1------------
322.3 ms

 

Źródłem pochodzenia danych jest Instytut Meteorologii i Gospodarki Wodnej – Państwowy Instytut Badawczy. Dane Instytutu Meteorologii i Gospodarki Wodnej – Państwowego Instytutu Badawczego zostały przetworzone.

Dane źródłowe można odnaleźć na stronie https://dane.imgw.pl